Time;durP1;ratioP1;P1;durP2;ratioP2;P2;SDS_P1;SDS_P2;PMS_P1;PMS_P2;Temp;Humidity;BMP_temperature;BMP_pressure;BME280_temperature;BME280_humidity;BME280_pressure;Samples;Min_cycle;Max_cycle;Signal;HPM_P1;HPM_P2
2021/07/23 00:00:35;;;;;;;;;16.00;13.50;;;;;22.00;51.58;100656.81;4998810;28;45116;-90
2021/07/23 00:03:01;;;;;;;;;12.00;11.25;;;;;21.97;51.20;100659.84;4998459;28;47284;-89
2021/07/23 00:05:26;;;;;;;;;15.00;14.25;;;;;21.93;51.97;100661.16;4998506;28;45948;-88
2021/07/23 00:07:51;;;;;;;;;12.00;10.75;;;;;21.71;52.21;100627.31;5016429;28;45245;-91
2021/07/23 00:10:17;;;;;;;;;16.25;12.00;;;;;21.66;52.25;100624.22;4998728;28;45288;-89
2021/07/23 00:12:42;;;;;;;;;14.75;14.00;;;;;21.86;52.00;100647.44;5015943;28;45418;-91
2021/07/23 00:15:08;;;;;;;;;15.75;12.50;;;;;21.89;52.70;100662.50;4998698;28;45187;-91
2021/07/23 00:17:33;;;;;;;;;17.00;13.25;;;;;21.83;52.79;100652.28;5016537;28;45179;-90
2021/07/23 00:19:59;;;;;;;;;17.00;14.50;;;;;21.63;52.83;100635.38;5016457;28;45328;-89
2021/07/23 00:22:24;;;;;;;;;14.75;14.25;;;;;21.65;52.61;100639.63;4998340;28;47165;-91
2021/07/23 00:24:51;;;;;;;;;16.00;14.25;;;;;21.49;53.04;100613.25;4998522;28;45204;-89
2021/07/23 00:27:17;;;;;;;;;14.75;13.50;;;;;21.58;52.79;100637.66;4998551;28;45230;-90
2021/07/23 00:29:42;;;;;;;;;13.75;12.25;;;;;21.43;53.28;100616.53;4998147;28;45192;-88
2021/07/23 00:32:08;;;;;;;;;12.75;11.00;;;;;21.35;53.23;100602.97;5015750;28;46075;-88
2021/07/23 00:34:33;;;;;;;;;13.00;13.00;;;;;21.27;52.95;100592.91;4998386;28;45610;-90
2021/07/23 00:36:58;;;;;;;;;13.00;13.00;;;;;21.36;53.19;100610.06;5016483;28;45347;-89
2021/07/23 00:39:24;;;;;;;;;13.00;13.00;;;;;21.48;53.57;100638.59;5016476;28;45236;-90
2021/07/23 00:41:49;;;;;;;;;11.25;11.25;;;;;21.25;53.12;100602.16;5016094;28;46172;-89
2021/07/23 00:44:15;;;;;;;;;15.00;12.50;;;;;21.20;53.74;100599.94;5018017;28;45305;-90
2021/07/23 00:46:41;;;;;;;;;14.50;11.75;;;;;21.30;53.72;100619.63;5019738;28;45172;-90
2021/07/23 00:49:07;;;;;;;;;16.50;14.25;;;;;21.36;53.61;100635.25;5001501;28;45259;-89
2021/07/23 00:51:33;;;;;;;;;13.00;12.25;;;;;21.17;53.74;100601.06;5019203;28;47216;-89
2021/07/23 00:54:00;;;;;;;;;14.75;11.75;;;;;21.17;53.84;100605.66;5001467;28;45155;-90
2021/07/23 00:56:26;;;;;;;;;13.00;12.75;;;;;21.21;54.18;100616.00;5001555;28;45316;-90
2021/07/23 00:58:53;;;;;;;;;15.25;13.50;;;;;21.23;54.40;100623.13;5001373;28;45131;-91
2021/07/23 01:01:18;;;;;;;;;11.75;11.75;;;;;21.15;53.85;100615.75;5001745;28;45338;-90
2021/07/23 01:03:45;;;;;;;;;12.75;10.75;;;;;21.12;54.44;100607.94;5018803;28;45255;-90
2021/07/23 01:06:11;;;;;;;;;16.00;13.50;;;;;20.98;54.13;100590.41;5001453;28;45252;-91
2021/07/23 01:08:36;;;;;;;;;15.00;12.00;;;;;20.91;54.61;100582.06;5019005;28;45183;-89
2021/07/23 01:11:01;;;;;;;;;13.75;12.25;;;;;20.97;54.61;100594.13;5001056;28;48130;-89
2021/07/23 01:13:27;;;;;;;;;12.25;10.50;;;;;20.86;54.38;100582.50;5001182;28;45377;-89
2021/07/23 01:15:52;;;;;;;;;12.25;12.00;;;;;20.85;54.98;100586.22;5001233;28;45188;-88
2021/07/23 01:18:18;;;;;;;;;15.75;11.75;;;;;20.95;54.65;100607.78;5018836;28;45171;-89
2021/07/23 01:20:44;;;;;;;;;11.50;11.50;;;;;20.78;54.73;100578.84;5000878;28;47463;-89
2021/07/23 01:23:10;;;;;;;;;12.50;10.75;;;;;20.92;55.19;100608.09;5001736;28;45698;-89
2021/07/23 01:25:36;;;;;;;;;12.50;11.00;;;;;20.80;55.09;100593.91;5000969;28;45216;-89
2021/07/23 01:28:02;;;;;;;;;14.00;11.75;;;;;20.87;55.12;100610.38;5019038;28;45303;-90
2021/07/23 01:30:28;;;;;;;;;13.75;12.75;;;;;20.61;55.18;100569.69;5000773;28;47381;-90
2021/07/23 01:32:54;;;;;;;;;16.50;11.00;;;;;20.66;55.34;100584.44;5000995;28;45177;-89
2021/07/23 01:35:20;;;;;;;;;12.25;11.00;;;;;20.76;55.27;100597.91;5001007;28;45211;-91
2021/07/23 01:37:46;;;;;;;;;13.00;12.00;;;;;20.74;55.62;100596.38;5018907;28;45285;-93
2021/07/23 01:40:14;;;;;;;;;15.50;14.00;;;;;20.64;55.48;100585.59;5018520;28;46409;-90
2021/07/23 01:42:42;;;;;;;;;14.75;13.50;;;;;20.55;55.81;100576.53;5000851;28;46178;-90
2021/07/23 01:45:08;;;;;;;;;12.00;10.25;;;;;20.49;55.71;100569.88;5018290;28;45199;-90
2021/07/23 01:47:35;;;;;;;;;15.00;12.25;;;;;20.60;55.86;100592.28;5018814;28;45231;-89
2021/07/23 01:50:01;;;;;;;;;16.25;12.50;;;;;20.39;55.81;100562.81;5018335;28;46443;-89
2021/07/23 01:52:26;;;;;;;;;13.50;12.00;;;;;20.56;56.37;100593.59;5018151;28;45292;-91
2021/07/23 01:54:52;;;;;;;;;13.50;12.25;;;;;20.42;55.89;100571.47;5016971;28;45491;-91
2021/07/23 01:57:18;;;;;;;;;13.25;10.25;;;;;20.26;56.25;100546.94;5000953;28;45422;-90
2021/07/23 01:59:43;;;;;;;;;11.50;10.50;;;;;20.32;56.70;100563.41;5000245;28;47249;-90
2021/07/23 02:02:09;;;;;;;;;12.50;10.50;;;;;20.46;56.32;100580.13;5017903;28;45319;-91
2021/07/23 02:04:34;;;;;;;;;14.00;13.25;;;;;20.39;56.84;100579.00;5000165;28;45168;-89
2021/07/23 02:07:00;;;;;;;;;15.00;14.25;;;;;20.41;56.35;100585.09;5018240;28;45107;-89
2021/07/23 02:09:26;;;;;;;;;13.00;12.00;;;;;20.30;57.00;100564.56;5000324;28;47924;-91
2021/07/23 02:11:51;;;;;;;;;11.00;10.75;;;;;20.30;56.81;100554.59;5018119;28;45144;-89
2021/07/23 02:14:16;;;;;;;;;12.00;11.00;;;;;20.38;56.50;100578.16;5000114;28;45224;-89
2021/07/23 02:16:42;;;;;;;;;13.50;12.00;;;;;20.33;57.08;100565.09;5018471;28;45477;-90
2021/07/23 02:19:07;;;;;;;;;17.00;11.75;;;;;20.30;56.67;100561.84;5018240;28;46444;-90
2021/07/23 02:21:36;;;;;;;;;13.50;13.00;;;;;20.28;56.94;100572.81;5000263;28;45223;-91
2021/07/23 02:24:03;;;;;;;;;17.00;12.75;;;;;20.08;56.67;100536.94;5017889;28;45292;-88
2021/07/23 02:26:29;;;;;;;;;17.25;13.50;;;;;20.21;56.93;100565.44;4999952;28;45264;-90
2021/07/23 02:28:54;;;;;;;;;11.75;11.75;;;;;20.25;56.95;100574.94;5017704;28;45444;-89
2021/07/23 02:31:20;;;;;;;;;13.50;11.00;;;;;20.23;57.16;100571.53;5000265;28;45329;-90
2021/07/23 02:33:46;;;;;;;;;15.00;14.75;;;;;20.09;57.42;100552.09;5019693;28;45098;-89
2021/07/23 02:36:12;;;;;;;;;13.50;12.50;;;;;20.19;57.58;100573.66;5019518;28;45303;-90
2021/07/23 02:38:38;;;;;;;;;12.00;11.25;;;;;20.08;57.61;100557.66;4999871;28;47047;-89
2021/07/23 02:41:03;;;;;;;;;12.75;10.75;;;;;20.04;57.44;100556.25;5017518;28;45299;-90
2021/07/23 02:43:29;;;;;;;;;14.00;11.00;;;;;20.07;57.60;100564.91;4999609;28;45213;-88
2021/07/23 02:45:54;;;;;;;;;14.50;13.00;;;;;19.84;57.51;100526.63;5000030;28;45141;-89
2021/07/23 02:48:20;;;;;;;;;12.00;9.25;;;;;20.02;57.64;100567.19;4999758;28;46873;-91
2021/07/23 02:50:46;;;;;;;;;14.25;13.25;;;;;19.97;57.77;100547.91;5017231;28;45228;-89
2021/07/23 02:53:11;;;;;;;;;14.00;13.25;;;;;19.92;57.82;100552.88;5017682;28;45251;-90
2021/07/23 02:55:37;;;;;;;;;17.50;15.00;;;;;19.69;58.02;100514.56;5017579;28;45246;-89
2021/07/23 02:58:03;;;;;;;;;14.00;10.50;;;;;19.81;58.24;100545.81;4999623;28;47130;-90
2021/07/23 03:00:28;;;;;;;;;14.25;12.25;;;;;19.85;58.38;100560.69;4999114;28;45617;-90
2021/07/23 03:02:54;;;;;;;;;15.00;12.75;;;;;19.68;58.53;100535.28;4999281;28;45252;-89
2021/07/23 03:05:19;;;;;;;;;16.50;11.75;;;;;19.63;58.59;100524.09;5017232;28;45156;-90
2021/07/23 03:07:45;;;;;;;;;16.00;13.50;;;;;19.70;58.44;100540.56;5017001;28;45329;-90
2021/07/23 03:10:10;;;;;;;;;13.25;12.00;;;;;19.70;58.21;100537.84;5009301;28;46055;-92
2021/07/23 03:12:36;;;;;;;;;12.00;10.50;;;;;19.72;58.76;100543.94;5037282;28;45235;-90
2021/07/23 03:15:03;;;;;;;;;12.25;11.00;;;;;19.58;58.62;100532.63;5019485;28;45274;-91
2021/07/23 03:17:28;;;;;;;;;13.75;12.50;;;;;19.55;58.89;100527.50;5037250;28;45422;-90
2021/07/23 03:19:53;;;;;;;;;14.00;11.00;;;;;19.48;59.06;100515.56;5018561;28;45634;-91
2021/07/23 03:22:19;;;;;;;;;17.25;14.50;;;;;19.57;58.51;100532.75;5037431;28;45120;-90
2021/07/23 03:24:44;;;;;;;;;13.75;12.25;;;;;19.57;59.19;100532.75;5037167;28;45329;-91
2021/07/23 03:27:10;;;;;;;;;13.25;11.00;;;;;19.51;58.94;100531.50;5036940;28;46232;-89
2021/07/23 03:29:36;;;;;;;;;15.25;13.25;;;;;19.57;59.39;100548.94;5036852;28;45883;-89
2021/07/23 03:32:01;;;;;;;;;14.50;12.25;;;;;19.42;59.02;100524.25;5037021;28;45165;-90
2021/07/23 03:34:26;;;;;;;;;15.00;13.75;;;;;19.44;59.30;100533.91;5019379;28;45376;-90
2021/07/23 03:36:51;;;;;;;;;16.50;13.75;;;;;19.39;59.19;100521.84;5018552;28;46846;-91
2021/07/23 03:39:17;;;;;;;;;17.00;15.00;;;;;19.36;59.63;100524.84;5036911;28;45323;-92
2021/07/23 03:41:42;;;;;;;;;11.75;11.75;;;;;19.27;59.52;100505.81;5037184;28;45091;-92
2021/07/23 03:44:08;;;;;;;;;16.25;11.00;;;;;19.27;59.19;100496.88;5018835;28;45232;-90
2021/07/23 03:46:33;;;;;;;;;14.25;12.75;;;;;19.41;59.79;100518.00;5036988;28;46429;-91
2021/07/23 03:48:59;;;;;;;;;16.00;14.00;;;;;19.30;59.65;100499.28;5036567;28;45326;-93
2021/07/23 03:51:24;;;;;;;;;10.00;9.00;;;;;19.27;59.84;100489.66;5018712;28;45236;-92
2021/07/23 03:53:49;;;;;;;;;15.00;13.00;;;;;19.27;59.91;100478.88;5036653;28;45159;-92
2021/07/23 03:56:14;;;;;;;;;17.00;14.25;;;;;19.28;59.81;100477.00;5036528;28;45338;-92
2021/07/23 03:58:40;;;;;;;;;18.50;15.25;;;;;19.24;59.78;100467.50;5036888;28;45186;-92
2021/07/23 04:01:06;;;;;;;;;15.50;13.25;;;;;19.21;60.27;100465.97;5036255;28;44910;-93
2021/07/23 04:03:34;;;;;;;;;18.25;15.25;;;;;19.19;60.42;100475.19;5036845;28;45255;-93
2021/07/23 04:06:00;;;;;;;;;15.00;13.50;;;;;19.22;60.24;100488.38;5036522;28;46129;-93
2021/07/23 04:08:26;;;;;;;;;14.50;14.25;;;;;19.21;60.31;100487.53;5018829;28;45514;-91
2021/07/23 04:10:51;;;;;;;;;13.50;13.50;;;;;19.14;60.79;100478.31;5019001;28;45196;-92
2021/07/23 04:13:16;;;;;;;;;19.50;14.25;;;;;19.17;60.89;100479.84;5035598;28;44758;-91
2021/07/23 04:15:42;;;;;;;;;15.75;14.25;;;;;19.19;60.77;100483.28;5036801;28;46378;-92
2021/07/23 04:18:07;;;;;;;;;21.25;16.00;;;;;19.10;60.43;100466.13;5037514;28;45198;-90
2021/07/23 04:20:33;;;;;;;;;16.25;15.00;;;;;19.17;60.69;100469.94;5021977;28;45193;-91
2021/07/23 04:22:58;;;;;;;;;17.50;14.50;;;;;19.17;60.59;100461.84;5040039;28;45300;-92
2021/07/23 04:25:24;;;;;;;;;15.00;13.25;;;;;19.13;61.03;100452.34;5039410;28;46066;-91
2021/07/23 04:27:49;;;;;;;;;15.00;15.00;;;;;19.13;60.57;100446.97;5039743;28;45175;-92
2021/07/23 04:30:16;;;;;;;;;14.75;13.00;;;;;19.13;60.54;100450.50;5021919;28;45161;-92
2021/07/23 04:32:42;;;;;;;;;16.50;13.50;;;;;19.18;60.47;100463.53;5021876;28;45198;-92
2021/07/23 04:35:08;;;;;;;;;15.75;15.25;;;;;19.07;60.64;100444.81;5038960;28;45275;-92
2021/07/23 04:37:33;;;;;;;;;16.50;14.50;;;;;19.13;60.85;100449.66;5039814;28;45217;-91
2021/07/23 04:39:59;;;;;;;;;16.25;13.75;;;;;19.25;60.77;100466.53;5039248;28;45257;-93
2021/07/23 04:42:24;;;;;;;;;13.75;13.00;;;;;19.13;61.07;100458.59;5021292;28;45338;-91
2021/07/23 04:44:50;;;;;;;;;15.00;12.75;;;;;19.06;60.83;100443.13;5021581;28;47169;-92
2021/07/23 04:47:15;;;;;;;;;15.75;14.00;;;;;18.97;60.91;100429.53;5021859;28;44899;-90
2021/07/23 04:49:40;;;;;;;;;10.50;10.50;;;;;19.16;61.24;100464.69;5039321;28;45272;-91
2021/07/23 04:52:06;;;;;;;;;17.75;16.75;;;;;19.13;60.93;100461.28;5039817;28;45092;-92
2021/07/23 04:54:31;;;;;;;;;16.25;14.50;;;;;19.21;61.21;100483.97;5021151;28;47428;-92
2021/07/23 04:56:56;;;;;;;;;17.25;16.75;;;;;19.11;61.40;100463.28;5021195;28;45906;-92
2021/07/23 04:59:21;;;;;;;;;16.25;16.25;;;;;19.15;61.29;100471.91;5038776;28;45257;-93
2021/07/23 05:01:47;;;;;;;;;23.25;19.50;;;;;19.16;61.16;100462.00;5039313;28;44627;-93
2021/07/23 05:04:12;;;;;;;;;17.25;15.75;;;;;19.27;61.13;100476.16;5021483;28;47081;-92
2021/07/23 05:06:38;;;;;;;;;17.50;16.00;;;;;19.14;61.39;100449.50;5039516;28;45185;-91
2021/07/23 05:09:04;;;;;;;;;16.50;15.75;;;;;19.05;61.30;100422.56;5021516;28;45295;-92
2021/07/23 05:11:30;;;;;;;;;20.25;17.50;;;;;19.21;61.11;100449.81;5039410;28;45115;-91
2021/07/23 05:13:56;;;;;;;;;17.50;16.00;;;;;19.37;61.09;100472.59;5038929;28;45345;-91
2021/07/23 05:16:21;;;;;;;;;18.75;18.50;;;;;19.42;61.11;100471.16;5037951;28;44887;-91
2021/07/23 05:18:47;;;;;;;;;18.25;15.25;;;;;19.40;61.49;100456.16;5039415;28;45273;-92
2021/07/23 05:21:12;;;;;;;;;25.25;18.25;;;;;19.42;60.98;100446.91;5039168;28;45270;-91
2021/07/23 05:23:42;;;;;;;;;19.25;17.00;;;;;19.41;61.11;100442.53;5038976;28;45156;-93
2021/07/23 05:26:08;;;;;;;;;18.50;15.75;;;;;19.56;61.03;100469.88;5021327;28;45109;-91
2021/07/23 05:28:33;;;;;;;;;19.25;15.25;;;;;19.60;61.48;100465.06;5038823;28;45489;-92
2021/07/23 05:31:02;;;;;;;;;19.25;16.00;;;;;19.55;60.99;100454.69;5020373;28;45164;-91
2021/07/23 05:33:27;;;;;;;;;18.50;15.50;;;;;19.60;61.41;100459.66;5021119;28;46154;-91
2021/07/23 05:35:52;;;;;;;;;18.00;16.50;;;;;19.52;61.20;100438.78;5038195;28;45212;-92
2021/07/23 05:38:18;;;;;;;;;20.25;16.75;;;;;19.69;61.05;100449.84;5039175;28;45177;-92
2021/07/23 05:40:43;;;;;;;;;23.00;21.25;;;;;19.56;61.01;100418.63;5021065;28;45141;-94
2021/07/23 05:43:09;;;;;;;;;18.50;16.50;;;;;19.86;61.09;100465.28;5038654;28;45251;-92
2021/07/23 05:45:38;;;;;;;;;16.00;15.50;;;;;19.85;61.06;100455.47;5038906;28;45377;-90
2021/07/23 05:48:04;;;;;;;;;16.00;15.25;;;;;19.95;61.34;100459.00;5038983;28;45271;-91
2021/07/23 05:50:30;;;;;;;;;18.00;16.25;;;;;20.02;60.67;100451.16;5039017;28;44655;-92
2021/07/23 05:52:55;;;;;;;;;23.00;18.00;;;;;19.91;60.93;100419.81;5038652;28;45637;-92
2021/07/23 05:55:22;;;;;;;;;16.25;14.50;;;;;20.07;60.84;100427.28;5038777;28;45154;-92
2021/07/23 05:57:47;;;;;;;;;16.50;16.50;;;;;20.31;60.77;100447.47;5039025;28;45164;-92
2021/07/23 06:00:13;;;;;;;;;17.50;17.00;;;;;20.43;60.11;100443.53;5038775;28;45179;-91
2021/07/23 06:02:38;;;;;;;;;19.00;16.25;;;;;20.56;60.51;100448.56;5041583;28;45188;-89
2021/07/23 06:05:04;;;;;;;;;19.00;16.00;;;;;20.66;59.88;100438.56;5042209;28;45263;-90
2021/07/23 06:07:30;;;;;;;;;16.75;15.75;;;;;20.81;59.74;100429.97;5045733;28;45280;-86
2021/07/23 06:09:55;;;;;;;;;20.75;20.50;;;;;20.94;60.02;100421.47;5037296;28;45217;-85
2021/07/23 06:12:20;;;;;;;;;17.75;17.00;;;;;21.11;59.13;100425.16;5036920;28;46384;-86
2021/07/23 06:14:46;;;;;;;;;20.33;14.67;;;;;21.26;59.13;100426.25;5037140;28;45354;-84
2021/07/23 06:17:11;;;;;;;;;19.25;15.75;;;;;21.43;58.41;100420.97;5037433;28;45220;-84
2021/07/23 06:19:37;;;;;;;;;20.25;19.50;;;;;21.58;58.74;100419.41;5037107;28;45243;-84
2021/07/23 06:22:03;;;;;;;;;16.50;15.50;;;;;21.77;58.45;100421.03;5036915;28;45501;-85
2021/07/23 06:24:29;;;;;;;;;20.75;17.25;;;;;21.86;57.19;100417.38;5036805;28;45566;-85
2021/07/23 06:26:54;;;;;;;;;17.50;16.25;;;;;22.06;57.17;100417.09;5036881;28;45216;-84
2021/07/23 06:29:19;;;;;;;;;20.00;17.67;;;;;22.17;57.19;100405.97;5037103;28;45307;-84
2021/07/23 06:31:44;;;;;;;;;19.00;18.00;;;;;22.32;56.71;100408.91;5036795;28;45359;-85
2021/07/23 06:34:10;;;;;;;;;23.75;19.50;;;;;22.46;56.00;100410.16;5036515;28;45264;-85
2021/07/23 06:36:35;;;;;;;;;22.50;18.75;;;;;22.53;55.35;100397.66;5037049;28;45223;-87
2021/07/23 06:39:00;;;;;;;;;20.50;19.00;;;;;22.65;55.06;100398.16;5037173;28;45149;-87
2021/07/23 06:41:26;;;;;;;;;19.25;17.00;;;;;22.75;54.76;100400.72;5018028;28;47156;-86
2021/07/23 06:43:51;;;;;;;;;19.50;19.50;;;;;22.82;55.15;100409.03;5037363;28;45232;-86
2021/07/23 06:46:17;;;;;;;;;21.50;18.25;;;;;22.92;55.04;100409.69;5038620;28;45295;-88
2021/07/23 06:48:42;;;;;;;;;23.00;18.00;;;;;23.05;54.59;100401.88;5040826;28;45175;-91
2021/07/23 06:51:07;;;;;;;;;17.75;15.50;;;;;23.22;54.86;100391.91;5036893;28;45219;-84
2021/07/23 06:53:33;;;;;;;;;25.75;19.00;;;;;23.36;54.28;100393.06;5036156;28;45259;-85
2021/07/23 06:55:58;;;;;;;;;27.00;19.50;;;;;23.53;53.82;100402.03;5036191;28;45203;-88
2021/07/23 06:58:23;;;;;;;;;21.00;21.00;;;;;23.58;52.70;100396.91;5019358;28;45160;-85
2021/07/23 07:00:49;;;;;;;;;23.50;22.25;;;;;23.60;52.98;100388.59;5035992;28;45263;-85
2021/07/23 07:03:14;;;;;;;;;32.25;29.00;;;;;23.64;52.51;100380.97;5037118;28;45247;-87
2021/07/23 07:05:39;;;;;;;;;32.75;30.50;;;;;23.74;52.25;100384.31;5036525;28;45206;-86
2021/07/23 07:08:05;;;;;;;;;29.25;24.50;;;;;23.81;52.35;100379.03;5036860;28;45491;-86
2021/07/23 07:10:30;;;;;;;;;21.75;19.00;;;;;23.93;51.74;100372.25;5036155;28;45646;-86
2021/07/23 07:12:56;;;;;;;;;20.00;20.00;;;;;24.04;52.03;100384.56;5036056;28;45310;-84
2021/07/23 07:15:22;;;;;;;;;28.50;22.75;;;;;24.13;51.84;100391.66;5036024;28;45208;-87
2021/07/23 07:17:47;;;;;;;;;21.75;20.00;;;;;24.19;51.77;100395.53;5036875;28;45315;-87
2021/07/23 07:20:13;;;;;;;;;24.50;19.75;;;;;24.27;51.77;100395.47;5036204;28;45887;-86
2021/07/23 07:22:38;;;;;;;;;24.50;21.25;;;;;24.36;51.54;100391.69;5035888;28;45216;-85
2021/07/23 07:25:04;;;;;;;;;20.50;19.50;;;;;24.54;50.87;100405.00;5036028;28;45221;-87
2021/07/23 07:27:29;;;;;;;;;21.75;19.25;;;;;24.71;50.40;100396.75;5036199;28;45294;-86
2021/07/23 07:29:54;;;;;;;;;19.50;19.50;;;;;24.91;50.43;100399.81;5035651;28;45385;-84
2021/07/23 07:32:20;;;;;;;;;24.00;21.75;;;;;25.13;49.62;100412.53;5035649;28;45234;-85
2021/07/23 07:34:45;;;;;;;;;23.50;22.50;;;;;25.35;49.22;100409.16;5035976;28;45088;-85
2021/07/23 07:37:10;;;;;;;;;21.25;20.50;;;;;25.46;48.70;100405.97;5035782;28;45109;-86
2021/07/23 07:39:35;;;;;;;;;22.00;19.00;;;;;25.59;49.19;100398.00;5035940;28;45199;-85
2021/07/23 07:42:02;;;;;;;;;21.00;18.50;;;;;25.73;47.80;100396.31;5035523;28;45235;-85
2021/07/23 07:44:28;;;;;;;;;19.00;17.50;;;;;25.93;47.84;100406.63;5035240;28;45196;-85
2021/07/23 07:46:53;;;;;;;;;23.25;21.75;;;;;26.09;46.91;100409.16;5035893;28;45208;-84
2021/07/23 07:49:21;;;;;;;;;26.00;22.00;;;;;26.16;47.27;100404.66;5035595;28;46271;-84
2021/07/23 07:51:47;;;;;;;;;20.75;19.25;;;;;26.20;46.79;100379.75;5035648;28;45294;-85
2021/07/23 07:54:13;;;;;;;;;17.50;17.50;;;;;26.34;46.95;100379.72;5039724;28;45287;-93
2021/07/23 07:56:39;;;;;;;;;23.00;19.00;;;;;26.46;46.81;100369.13;5040355;28;45266;-90
2021/07/23 07:59:04;;;;;;;;;25.00;19.75;;;;;26.68;47.09;100369.16;5022330;28;47470;-87
2021/07/23 08:01:30;;;;;;;;;19.25;18.50;;;;;26.87;46.38;100373.97;5039527;28;45188;-89
2021/07/23 08:03:55;;;;;;;;;19.75;18.75;;;;;27.12;45.70;100369.97;5038742;28;45215;-89
2021/07/23 08:06:25;;;;;;;;;22.50;20.25;;;;;27.31;45.17;100374.72;5038098;28;45294;-87
2021/07/23 08:08:52;;;;;;;;;18.50;16.00;;;;;27.43;44.56;100363.28;5018772;28;45300;-89
2021/07/23 08:11:18;;;;;;;;;20.25;19.25;;;;;27.60;44.40;100361.06;5019202;28;45682;-89
2021/07/23 08:13:43;;;;;;;;;23.75;20.50;;;;;27.71;44.04;100363.22;5019153;28;45242;-89
2021/07/23 08:16:10;;;;;;;;;17.00;17.00;;;;;27.76;44.04;100360.72;5019603;28;45311;-92
2021/07/23 08:18:36;;;;;;;;;23.25;19.00;;;;;27.93;43.87;100360.38;5020382;28;45231;-92
2021/07/23 08:21:03;;;;;;;;;24.75;22.00;;;;;27.93;43.27;100350.28;5020126;28;45228;-92
2021/07/23 08:23:28;;;;;;;;;22.75;20.75;;;;;28.02;43.20;100367.38;5020280;28;45235;-91
2021/07/23 08:25:54;;;;;;;;;20.75;20.25;;;;;28.11;42.95;100351.66;5019654;28;45447;-93
2021/07/23 08:28:19;;;;;;;;;22.00;17.75;;;;;28.31;42.71;100362.66;5019942;28;45205;-91
2021/07/23 08:30:44;;;;;;;;;24.00;21.25;;;;;28.39;42.34;100348.78;5002829;28;45156;-92
2021/07/23 08:33:10;;;;;;;;;21.00;18.75;;;;;28.57;42.16;100353.66;5021668;28;45114;-91
2021/07/23 08:35:36;;;;;;;;;19.75;16.75;;;;;28.78;41.84;100352.66;5002919;28;45263;-92
2021/07/23 08:38:02;;;;;;;;;16.75;15.75;;;;;28.90;41.66;100350.97;5019955;28;45840;-91
2021/07/23 08:40:27;;;;;;;;;19.00;17.75;;;;;28.96;41.68;100345.69;5019670;28;45327;-91
2021/07/23 08:42:53;;;;;;;;;22.50;18.50;;;;;28.95;41.54;100346.75;5020470;28;45272;-90
2021/07/23 08:45:18;;;;;;;;;17.50;16.00;;;;;28.84;41.62;100343.59;5020954;28;45252;-91
2021/07/23 08:47:44;;;;;;;;;18.50;17.50;;;;;28.72;41.49;100334.34;5022269;28;45248;-91
2021/07/23 08:50:09;;;;;;;;;21.75;20.75;;;;;28.59;41.36;100327.78;5020131;28;45216;-92
2021/07/23 08:52:37;;;;;;;;;18.00;16.50;;;;;28.57;41.66;100335.34;5019830;28;45206;-90
2021/07/23 08:55:04;;;;;;;;;23.25;19.00;;;;;28.50;41.38;100345.41;5019699;28;45315;-91
2021/07/23 08:57:29;;;;;;;;;20.50;18.00;;;;;28.44;41.67;100337.22;5035028;28;45404;-91
2021/07/23 08:59:55;;;;;;;;;20.25;17.50;;;;;28.35;41.58;100315.53;5031848;28;45391;-90
2021/07/23 09:02:20;;;;;;;;;22.25;20.25;;;;;28.48;41.32;100338.50;5020900;28;45248;-91
2021/07/23 09:04:45;;;;;;;;;24.25;21.00;;;;;28.40;41.35;100334.06;5018451;28;45160;-91
2021/07/23 09:07:17;;;;;;;;;21.75;20.00;;;;;28.23;41.63;100329.00;5030005;28;45541;-86
2021/07/23 09:09:43;;;;;;;;;19.25;17.75;;;;;28.07;41.71;100332.91;5031417;28;44998;-87
2021/07/23 09:12:09;;;;;;;;;21.75;19.00;;;;;27.97;41.48;100323.41;5034442;28;45120;-93
2021/07/23 09:14:34;;;;;;;;;20.50;19.50;;;;;27.95;42.31;100325.50;5032503;28;45193;-92
2021/07/23 09:17:00;;;;;;;;;21.50;18.50;;;;;27.87;41.91;100321.06;5016232;28;47077;-91
2021/07/23 09:19:26;;;;;;;;;22.50;17.75;;;;;27.91;43.25;100330.53;5030445;28;45153;-87
2021/07/23 09:21:56;;;;;;;;;20.25;18.50;;;;;27.70;43.53;100296.00;5035939;28;45268;-91
2021/07/23 09:24:23;;;;;;;;;22.75;20.75;;;;;27.88;43.34;100314.56;5051264;28;45149;-94
2021/07/23 09:26:48;;;;;;;;;27.25;21.25;;;;;27.94;43.33;100301.97;5033877;28;47068;-93
2021/07/23 09:29:14;;;;;;;;;21.00;18.00;;;;;28.22;42.92;100305.44;5040931;28;45262;-87
2021/07/23 09:31:40;;;;;;;;;24.75;23.25;;;;;28.55;42.36;100312.84;5049061;28;44649;-85
2021/07/23 09:34:06;;;;;;;;;23.75;22.00;;;;;28.73;41.84;100305.91;5054479;28;44597;-86
2021/07/23 09:36:32;;;;;;;;;21.25;18.75;;;;;28.89;42.22;100297.28;5066469;28;45043;-85
2021/07/23 09:39:03;;;;;;;;;19.50;19.50;;;;;29.12;42.10;100292.41;5068616;28;44857;-86
2021/07/23 09:41:29;;;;;;;;;19.00;17.25;;;;;29.31;41.36;100288.81;5051332;28;44571;-86
2021/07/23 09:44:11;;;;;;;;;23.50;20.25;;;;;29.64;40.90;100295.22;5051122;28;44710;-86
2021/07/23 09:46:44;;;;;;;;;21.75;19.50;;;;;29.89;40.04;100289.88;5067398;28;45638;-87
2021/07/23 09:49:33;;;;;;;;;25.25;19.25;;;;;29.95;39.27;100270.66;5067419;28;45193;-86
2021/07/23 09:52:02;;;;;;;;;23.00;21.25;;;;;29.98;39.64;100260.31;5069023;28;44641;-86
2021/07/23 09:54:28;;;;;;;;;22.50;20.50;;;;;29.99;39.12;100253.78;5065539;28;44688;-89
2021/07/23 09:56:53;;;;;;;;;22.25;19.75;;;;;29.87;38.71;100245.41;5045808;28;46417;-87
2021/07/23 09:59:44;;;;;;;;;23.50;22.75;;;;;29.83;38.81;100249.59;5065810;28;44625;-86
2021/07/23 10:02:16;;;;;;;;;21.50;19.25;;;;;29.60;39.10;100240.03;5058387;28;44646;-86
2021/07/23 10:04:52;;;;;;;;;23.25;22.25;;;;;29.62;39.42;100248.88;5067870;28;44722;-85
2021/07/23 10:07:24;;;;;;;;;22.50;21.75;;;;;29.47;38.77;100226.41;5031981;28;47527;-87
2021/07/23 10:09:54;;;;;;;;;23.50;22.25;;;;;29.47;39.46;100235.44;5048229;28;44842;-86
2021/07/23 10:12:21;;;;;;;;;23.50;21.75;;;;;29.41;39.60;100217.16;5050191;28;44882;-86
2021/07/23 10:14:48;;;;;;;;;19.75;18.50;;;;;29.46;39.22;100230.19;5067995;28;44695;-86
2021/07/23 10:17:14;;;;;;;;;20.50;18.25;;;;;29.31;39.07;100206.66;5067042;28;44945;-86
2021/07/23 10:19:40;;;;;;;;;25.25;22.50;;;;;29.38;39.49;100193.78;5065876;28;44591;-85
2021/07/23 10:22:07;;;;;;;;;27.75;21.50;;;;;29.59;39.64;100184.41;5050117;28;44738;-85
2021/07/23 10:24:36;;;;;;;;;21.50;20.50;;;;;29.94;39.48;100173.06;5067627;28;44644;-85
2021/07/23 10:27:06;;;;;;;;;25.75;22.75;;;;;30.39;38.57;100180.28;5067734;28;45041;-87
2021/07/23 10:29:51;;;;;;;;;20.00;19.00;;;;;30.84;38.44;100173.72;5061142;28;44908;-92
2021/07/23 10:32:35;;;;;;;;;24.50;20.25;;;;;31.37;37.13;100186.03;5015927;28;45229;-86
2021/07/23 10:35:15;;;;;;;;;101.50;88.00;;;;;31.66;36.69;100176.13;5028239;28;45504;-87
2021/07/23 10:37:43;;;;;;;;;27.00;25.75;;;;;31.73;35.79;100156.78;5017779;28;46528;-89
2021/07/23 10:40:08;;;;;;;;;32.75;28.75;;;;;31.69;35.73;100166.56;5019008;28;45801;-91
2021/07/23 10:42:38;;;;;;;;;27.25;22.00;;;;;31.72;36.17;100157.84;5022731;28;45272;-90
2021/07/23 10:45:05;;;;;;;;;22.50;21.50;;;;;31.76;35.47;100150.00;5029024;28;45167;-88
2021/07/23 10:47:39;;;;;;;;;21.25;20.25;;;;;31.71;35.30;100153.47;5036608;28;46281;-85
2021/07/23 10:50:20;;;;;;;;;20.75;19.25;;;;;31.58;35.95;100118.78;5033569;28;45164;-84
2021/07/23 10:52:46;;;;;;;;;22.50;18.50;;;;;31.71;35.75;100125.13;5036605;28;45249;-83
2021/07/23 10:55:11;;;;;;;;;19.75;18.75;;;;;31.92;35.37;100130.06;5008598;28;45350;-85
2021/07/23 10:57:37;;;;;;;;;18.75;18.00;;;;;32.11;34.78;100129.94;5027781;28;45345;-86
2021/07/23 11:00:04;;;;;;;;;17.00;16.75;;;;;32.24;33.82;100123.41;5018858;28;45282;-85
2021/07/23 11:02:29;;;;;;;;;19.50;17.50;;;;;32.25;34.05;100114.91;5022049;28;45541;-82
2021/07/23 11:05:05;;;;;;;;;20.25;19.00;;;;;32.35;34.62;100106.94;5040301;28;45335;-92